createdAt,value
2022-12-03T00:00:12.868Z,12.85
2022-12-03T00:02:40.193Z,13.45
2022-12-03T00:05:12.980Z,12.27
2022-12-03T00:07:42.537Z,12.55
2022-12-03T00:10:12.191Z,12.93
2022-12-03T00:12:38.891Z,12.63
2022-12-03T00:15:07.073Z,13.02
2022-12-03T00:17:33.849Z,11.98
2022-12-03T00:20:00.649Z,11.07
2022-12-03T00:22:27.364Z,13.25
2022-12-03T00:24:54.278Z,10.95
2022-12-03T00:27:23.763Z,12.23
2022-12-03T00:29:52.892Z,13.27
2022-12-03T00:32:19.581Z,12.45
2022-12-03T00:34:48.420Z,12.48
2022-12-03T00:37:19.933Z,11.73
2022-12-03T00:39:46.576Z,11.48
2022-12-03T00:42:13.317Z,11.68
2022-12-03T00:44:40.117Z,11.40
2022-12-03T00:47:07.016Z,10.93
2022-12-03T00:49:36.395Z,12.00
2022-12-03T00:52:03.196Z,11.18
2022-12-03T00:54:32.110Z,12.20
2022-12-03T00:56:59.267Z,11.85
2022-12-03T00:59:26.039Z,13.63
2022-12-03T01:01:52.850Z,14.75
2022-12-03T01:04:19.768Z,15.27
2022-12-03T01:06:46.515Z,14.43
2022-12-03T01:09:13.262Z,15.70
2022-12-03T01:11:42.211Z,14.82
2022-12-03T01:14:14.681Z,11.50
2022-12-03T01:16:41.893Z,11.48
2022-12-03T01:19:10.738Z,11.82
2022-12-03T01:21:40.129Z,12.02
2022-12-03T01:24:06.926Z,11.68
2022-12-03T01:26:36.016Z,11.30
2022-12-03T01:29:05.814Z,12.88
2022-12-03T01:31:51.032Z,13.20
2022-12-03T01:34:17.836Z,10.95
2022-12-03T01:36:46.994Z,12.82
2022-12-03T01:39:13.690Z,13.35
2022-12-03T01:41:43.285Z,12.68
2022-12-03T01:44:30.741Z,13.70
2022-12-03T01:47:00.920Z,13.52
2022-12-03T01:49:33.442Z,14.63
2022-12-03T01:52:00.553Z,12.98
2022-12-03T01:54:37.036Z,12.15
2022-12-03T01:57:04.249Z,13.35
2022-12-03T01:59:37.508Z,12.57
2022-12-03T02:02:17.433Z,12.57
2022-12-03T02:04:46.892Z,13.80
2022-12-03T02:07:25.952Z,14.50
2022-12-03T02:09:54.298Z,14.43
2022-12-03T02:12:43.806Z,15.00
2022-12-03T02:15:13.392Z,15.57
2022-12-03T02:17:45.835Z,14.68
2022-12-03T02:20:15.884Z,14.93
2022-12-03T02:23:11.044Z,14.98
2022-12-03T02:25:38.240Z,16.40
2022-12-03T02:28:07.810Z,14.95
2022-12-03T02:30:35.059Z,13.82
2022-12-03T02:33:02.397Z,14.10
2022-12-03T02:35:33.258Z,13.38
2022-12-03T02:38:23.215Z,14.38
2022-12-03T02:40:55.480Z,15.02
2022-12-03T02:43:22.694Z,15.05
2022-12-03T02:45:55.297Z,12.85
2022-12-03T02:48:26.612Z,14.23
2022-12-03T02:50:59.938Z,17.23
2022-12-03T02:53:33.395Z,15.90
2022-12-03T02:56:04.488Z,14.52
2022-12-03T02:58:34.387Z,14.15
2022-12-03T03:01:06.552Z,14.40
2022-12-03T03:03:33.876Z,13.45
2022-12-03T03:06:02.856Z,17.13
2022-12-03T03:08:33.775Z,16.27
2022-12-03T03:11:03.905Z,15.95
2022-12-03T03:13:32.675Z,16.73
2022-12-03T03:16:01.590Z,15.27
2022-12-03T03:18:31.232Z,16.17
2022-12-03T03:20:57.931Z,17.20
2022-12-03T03:23:25.662Z,18.17
2022-12-03T03:26:04.901Z,18.17
2022-12-03T03:28:34.561Z,17.60
2022-12-03T03:31:03.856Z,16.50
2022-12-03T03:33:30.928Z,15.38
2022-12-03T03:36:00.423Z,14.80
2022-12-03T03:38:28.984Z,18.55
2022-12-03T03:40:59.859Z,17.95
2022-12-03T03:43:28.779Z,17.85
2022-12-03T03:45:58.284Z,18.70
2022-12-03T03:48:25.211Z,16.58
2022-12-03T03:50:52.892Z,18.65
2022-12-03T03:53:20.678Z,16.95
2022-12-03T03:55:48.164Z,16.63
2022-12-03T03:58:15.048Z,16.38
2022-12-03T04:00:44.824Z,16.95
2022-12-03T04:03:12.612Z,19.50
2022-12-03T04:05:39.440Z,18.08
2022-12-03T04:08:06.260Z,15.43
2022-12-03T04:10:51.635Z,19.70
2022-12-03T04:13:18.405Z,17.75
2022-12-03T04:15:45.074Z,14.35
2022-12-03T04:18:30.332Z,17.48
2022-12-03T04:21:19.188Z,15.73
2022-12-03T04:23:45.953Z,18.17
2022-12-03T04:26:31.524Z,18.10
2022-12-03T04:28:58.257Z,18.02
2022-12-03T04:31:43.840Z,17.45
2022-12-03T04:34:29.323Z,15.93
2022-12-03T04:36:56.327Z,16.50
2022-12-03T04:39:23.069Z,15.32
2022-12-03T04:41:49.803Z,17.17
2022-12-03T04:44:35.237Z,16.88
2022-12-03T04:47:08.327Z,15.98
2022-12-03T04:49:38.533Z,16.48
2022-12-03T04:52:06.059Z,17.42
2022-12-03T04:54:32.865Z,16.20
2022-12-03T04:56:59.641Z,18.75
2022-12-03T04:59:29.574Z,15.20
2022-12-03T05:01:56.377Z,15.98
2022-12-03T05:04:25.649Z,17.90
2022-12-03T05:06:52.763Z,16.60
2022-12-03T05:09:19.652Z,17.77
2022-12-03T05:11:48.622Z,16.27
2022-12-03T05:14:17.422Z,17.20
2022-12-03T05:16:44.264Z,19.38
2022-12-03T05:19:11.029Z,17.88
2022-12-03T05:21:37.693Z,19.25
2022-12-03T05:24:07.201Z,17.98
2022-12-03T05:26:34.253Z,18.40
2022-12-03T05:29:01.157Z,17.52
2022-12-03T05:31:30.049Z,17.02
2022-12-03T05:33:56.806Z,16.73
2022-12-03T05:36:25.656Z,16.42
2022-12-03T05:38:52.519Z,18.38
2022-12-03T05:41:38.136Z,18.30
2022-12-03T05:44:07.190Z,17.85
2022-12-03T05:46:36.254Z,18.08
2022-12-03T05:49:03.047Z,15.30
2022-12-03T05:51:32.085Z,14.73
2022-12-03T05:54:01.086Z,17.52
2022-12-03T05:56:30.078Z,18.45
2022-12-03T05:58:59.082Z,17.63
2022-12-03T06:01:25.785Z,16.02
2022-12-03T06:03:52.639Z,16.02
2022-12-03T06:06:24.394Z,19.02
2022-12-03T06:08:53.538Z,19.02
2022-12-03T06:11:20.322Z,20.00
2022-12-03T06:13:47.047Z,20.42
2022-12-03T06:16:13.796Z,19.67
2022-12-03T06:18:42.979Z,21.40
2022-12-03T06:21:09.613Z,20.88
2022-12-03T06:23:44.529Z,22.15
2022-12-03T06:26:15.003Z,20.50
2022-12-03T06:28:46.397Z,18.08
2022-12-03T06:31:13.946Z,22.63
2022-12-03T06:33:40.778Z,19.25
2022-12-03T06:36:07.699Z,22.80
2022-12-03T06:38:36.661Z,23.30
2022-12-03T06:41:03.403Z,22.55
2022-12-03T06:43:31.046Z,20.17
2022-12-03T06:46:02.448Z,17.17
2022-12-03T06:48:33.639Z,13.52
2022-12-03T06:51:02.492Z,19.93
2022-12-03T06:53:29.335Z,22.50
2022-12-03T06:55:56.080Z,21.30
2022-12-03T06:58:22.790Z,20.23
2022-12-03T07:00:49.498Z,21.60
2022-12-03T07:03:16.246Z,17.70
2022-12-03T07:05:45.226Z,18.40
2022-12-03T07:08:11.983Z,21.75
2022-12-03T07:10:40.966Z,19.80
2022-12-03T07:13:07.726Z,18.00
2022-12-03T07:15:34.437Z,18.25
2022-12-03T07:18:03.224Z,15.32
2022-12-03T07:20:29.919Z,21.70
2022-12-03T07:22:56.688Z,18.33
2022-12-03T07:25:23.913Z,18.20
2022-12-03T07:27:50.772Z,16.98
2022-12-03T07:30:18.022Z,16.23
2022-12-03T07:32:44.704Z,15.68
2022-12-03T07:35:11.403Z,17.30
2022-12-03T07:37:40.600Z,17.58
2022-12-03T07:40:08.033Z,17.52
2022-12-03T07:42:37.181Z,15.75
2022-12-03T07:45:04.628Z,21.80
2022-12-03T07:47:31.921Z,17.80
2022-12-03T07:49:58.669Z,17.88
2022-12-03T07:52:27.935Z,18.52
2022-12-03T07:54:54.903Z,17.08
2022-12-03T07:57:21.689Z,17.92
2022-12-03T07:59:48.394Z,17.90
2022-12-03T08:02:20.985Z,18.65
2022-12-03T08:04:48.471Z,16.60
2022-12-03T08:07:17.622Z,15.80
2022-12-03T08:09:46.868Z,18.05
2022-12-03T08:12:40.120Z,17.25
2022-12-03T08:15:18.182Z,17.98
2022-12-03T08:17:54.705Z,17.33
2022-12-03T08:20:28.641Z,15.85
2022-12-03T08:22:56.423Z,16.63
2022-12-03T08:25:26.650Z,15.73
2022-12-03T08:28:02.473Z,17.02
2022-12-03T08:30:29.251Z,18.25
2022-12-03T08:32:58.288Z,16.05
2022-12-03T08:35:28.841Z,17.15
2022-12-03T08:38:05.615Z,15.10
2022-12-03T08:40:39.240Z,15.25
2022-12-03T08:43:34.079Z,14.45
2022-12-03T08:46:00.841Z,16.52
2022-12-03T08:48:36.933Z,16.60
2022-12-03T08:51:12.942Z,15.20
2022-12-03T08:54:03.496Z,15.45
2022-12-03T08:56:36.897Z,15.82
2022-12-03T08:59:32.789Z,19.73
2022-12-03T09:01:59.766Z,17.42
2022-12-03T09:04:31.013Z,19.80
2022-12-03T09:06:58.527Z,19.13
2022-12-03T09:09:27.483Z,15.07
2022-12-03T09:11:54.903Z,15.75
2022-12-03T09:14:24.137Z,14.73
2022-12-03T09:16:55.477Z,15.57
2022-12-03T09:19:26.556Z,14.60
2022-12-03T09:21:54.572Z,17.88
2022-12-03T09:24:25.856Z,14.60
2022-12-03T09:26:54.997Z,13.80
2022-12-03T09:29:21.692Z,12.77
2022-12-03T09:31:48.775Z,12.73
2022-12-03T09:34:18.016Z,15.68
2022-12-03T09:36:46.991Z,13.82
2022-12-03T09:39:15.895Z,12.95
2022-12-03T09:41:43.092Z,12.10
2022-12-03T09:44:17.577Z,12.35
2022-12-03T09:46:50.434Z,10.70
2022-12-03T09:49:20.185Z,12.30
2022-12-03T09:51:47.186Z,12.38
2022-12-03T09:54:23.843Z,12.68
2022-12-03T09:56:51.056Z,11.15
2022-12-03T09:59:17.899Z,11.40
2022-12-03T10:01:46.936Z,10.98
2022-12-03T10:04:16.352Z,12.25
2022-12-03T10:06:47.610Z,11.60
2022-12-03T10:09:30.384Z,11.63
2022-12-03T10:11:58.956Z,12.98
2022-12-03T10:14:26.513Z,12.40
2022-12-03T10:16:55.607Z,12.48
2022-12-03T10:19:30.090Z,12.43
2022-12-03T10:21:59.761Z,12.90
2022-12-03T10:24:30.140Z,12.88
2022-12-03T10:27:22.137Z,12.32
2022-12-03T10:29:59.562Z,12.52
2022-12-03T10:32:48.339Z,12.88
2022-12-03T10:35:15.067Z,12.02
2022-12-03T10:38:01.696Z,13.00
2022-12-03T10:40:41.933Z,11.05
2022-12-03T10:43:27.545Z,11.88
2022-12-03T10:46:04.652Z,11.15
2022-12-03T10:48:34.358Z,11.25
2022-12-03T10:51:05.221Z,12.52
2022-12-03T10:53:35.592Z,13.25
2022-12-03T10:56:08.127Z,12.50
2022-12-03T10:58:41.763Z,13.50
2022-12-03T11:01:23.651Z,12.30
2022-12-03T11:03:54.533Z,13.60
2022-12-03T11:06:23.068Z,12.95
2022-12-03T11:09:02.545Z,12.57
2022-12-03T11:11:34.572Z,12.85
2022-12-03T11:14:03.740Z,13.10
2022-12-03T11:16:56.171Z,13.07
2022-12-03T11:22:14.925Z,13.30
2022-12-03T11:27:17.289Z,11.93
2022-12-03T11:29:58.877Z,11.98
2022-12-03T11:32:43.945Z,11.68
2022-12-03T11:35:37.417Z,11.90
2022-12-03T11:38:38.392Z,12.02
2022-12-03T11:41:21.888Z,11.23
2022-12-03T11:43:57.313Z,12.48
2022-12-03T11:46:35.954Z,13.50
2022-12-03T11:49:25.632Z,11.40
2022-12-03T11:51:58.060Z,11.68
2022-12-03T11:54:29.606Z,11.52
2022-12-03T11:56:58.525Z,12.05
2022-12-03T11:59:29.926Z,13.63
2022-12-03T12:01:59.181Z,12.38
2022-12-03T12:04:33.356Z,11.88
2022-12-03T12:07:01.285Z,11.55
2022-12-03T12:09:58.517Z,10.90
2022-12-03T12:12:31.935Z,10.63
2022-12-03T12:15:01.983Z,10.98
2022-12-03T12:17:36.701Z,12.57
2022-12-03T12:20:25.816Z,12.68
2022-12-03T12:22:57.782Z,11.88
2022-12-03T12:25:30.564Z,11.27
2022-12-03T12:27:57.517Z,12.68
2022-12-03T12:30:24.272Z,11.77
2022-12-03T12:32:52.437Z,12.98
2022-12-03T12:35:22.082Z,12.63
2022-12-03T12:37:59.838Z,13.23
2022-12-03T12:40:32.378Z,12.88
2022-12-03T12:43:12.662Z,11.95
2022-12-03T12:45:43.581Z,12.90
2022-12-03T12:48:12.445Z,13.00
2022-12-03T12:50:40.612Z,11.85
2022-12-03T12:53:29.477Z,12.25
2022-12-03T12:56:07.386Z,12.20
2022-12-03T12:58:37.008Z,12.13
2022-12-03T13:01:19.377Z,12.13
2022-12-03T13:03:53.225Z,12.23
2022-12-03T13:06:28.695Z,12.70
2022-12-03T13:08:58.755Z,11.07
2022-12-03T13:11:25.495Z,11.68
2022-12-03T13:13:55.014Z,10.70
2022-12-03T13:16:32.923Z,14.65
2022-12-03T13:19:01.588Z,12.13
2022-12-03T13:21:38.038Z,8.82
2022-12-03T13:24:24.692Z,9.50
2022-12-03T13:26:54.232Z,10.27
2022-12-03T13:29:22.896Z,9.88
2022-12-03T13:32:02.098Z,9.75
2022-12-03T13:34:35.805Z,11.15
2022-12-03T13:37:06.908Z,11.02
2022-12-03T13:39:36.839Z,8.97
2022-12-03T13:42:42.194Z,10.48
2022-12-03T13:45:14.915Z,11.10
2022-12-03T13:47:50.214Z,12.10
2022-12-03T13:50:44.503Z,9.48
2022-12-03T13:53:21.088Z,10.88
2022-12-03T13:56:04.497Z,11.40
2022-12-03T13:58:33.484Z,12.18
2022-12-03T14:01:00.290Z,10.85
2022-12-03T14:03:29.531Z,8.90
2022-12-03T14:06:00.881Z,10.10
2022-12-03T14:08:29.957Z,10.00
2022-12-03T14:11:00.754Z,8.30
2022-12-03T14:13:27.855Z,8.43
2022-12-03T14:15:54.582Z,8.43
2022-12-03T14:18:23.581Z,8.80
2022-12-03T14:20:54.955Z,9.40
2022-12-03T14:23:21.652Z,8.65
2022-12-03T14:25:48.352Z,11.30
2022-12-03T14:28:17.306Z,10.20
2022-12-03T14:30:48.664Z,11.85
2022-12-03T14:33:19.977Z,7.53
2022-12-03T14:35:48.790Z,10.63
2022-12-03T14:38:15.511Z,12.98
2022-12-03T14:40:42.463Z,10.70
2022-12-03T14:43:09.327Z,10.15
2022-12-03T14:45:38.286Z,10.27
2022-12-03T14:48:07.550Z,10.43
2022-12-03T14:50:36.455Z,12.07
2022-12-03T14:53:03.178Z,12.30
2022-12-03T14:55:30.023Z,10.77
2022-12-03T14:57:58.989Z,10.52
2022-12-03T15:00:27.906Z,9.23
2022-12-03T15:02:59.338Z,12.77
2022-12-03T15:05:31.111Z,12.88
2022-12-03T15:08:02.467Z,10.88
2022-12-03T15:10:31.411Z,11.82
2022-12-03T15:13:00.326Z,11.25
2022-12-03T15:15:27.369Z,11.05
2022-12-03T15:17:54.069Z,10.43
2022-12-03T15:20:23.318Z,9.25
2022-12-03T15:22:50.054Z,10.05
2022-12-03T15:25:24.100Z,11.45
2022-12-03T15:27:51.257Z,9.60
2022-12-03T15:30:18.141Z,11.32
2022-12-03T15:32:46.958Z,11.57
2022-12-03T15:35:17.631Z,11.23
2022-12-03T15:37:47.474Z,9.90
2022-12-03T15:40:16.843Z,10.85
2022-12-03T15:42:43.665Z,11.15
2022-12-03T15:45:14.971Z,11.07
2022-12-03T15:47:42.170Z,9.60
2022-12-03T15:50:09.500Z,9.38
2022-12-03T15:52:40.975Z,9.73
2022-12-03T15:55:10.488Z,11.65
2022-12-03T15:57:37.448Z,10.30
2022-12-03T16:00:07.918Z,10.02
2022-12-03T16:02:37.203Z,12.85
2022-12-03T16:05:09.478Z,9.75
2022-12-03T16:07:38.891Z,9.30
2022-12-03T16:10:07.873Z,10.05
2022-12-03T16:12:37.221Z,10.10
2022-12-03T16:15:08.982Z,10.23
2022-12-03T16:17:37.844Z,10.93
2022-12-03T16:20:10.252Z,10.00
2022-12-03T16:22:44.268Z,10.80
2022-12-03T16:25:11.095Z,10.50
2022-12-03T16:27:38.266Z,10.18
2022-12-03T16:30:08.910Z,9.10
2022-12-03T16:32:40.829Z,10.25
2022-12-03T16:35:09.927Z,12.45
2022-12-03T16:37:39.123Z,11.27
2022-12-03T16:40:06.609Z,10.95
2022-12-03T16:42:33.438Z,12.18
2022-12-03T16:45:08.799Z,13.18
2022-12-03T16:47:40.743Z,13.52
2022-12-03T16:50:11.571Z,12.60
2022-12-03T16:52:40.977Z,22.38
2022-12-03T16:55:08.170Z,17.50
2022-12-03T16:57:37.196Z,13.75
2022-12-03T17:00:05.735Z,20.67
2022-12-03T17:02:32.444Z,14.43
2022-12-03T17:05:01.690Z,13.88
2022-12-03T17:07:30.853Z,12.82
2022-12-03T17:09:57.961Z,18.40
2022-12-03T17:12:25.511Z,12.45
2022-12-03T17:14:52.509Z,14.38
2022-12-03T17:17:19.227Z,17.15
2022-12-03T17:19:58.012Z,23.77
2022-12-03T17:22:26.844Z,15.85
2022-12-03T17:24:58.195Z,13.32
2022-12-03T17:27:25.214Z,11.55
2022-12-03T17:29:54.373Z,20.15
2022-12-03T17:32:21.256Z,13.98
2022-12-03T17:34:48.024Z,14.63
2022-12-03T17:37:16.973Z,13.00
2022-12-03T17:39:48.366Z,14.68
2022-12-03T17:42:17.706Z,13.77
2022-12-03T17:44:44.409Z,14.18
2022-12-03T17:47:11.181Z,15.15
2022-12-03T17:49:40.012Z,12.32
2022-12-03T17:52:06.773Z,11.63
2022-12-03T17:54:55.120Z,15.18
2022-12-03T17:57:20.362Z,13.10
2022-12-03T17:59:52.182Z,13.63
2022-12-03T18:02:19.316Z,16.08
2022-12-03T18:04:48.439Z,16.42
2022-12-03T18:07:17.505Z,15.38
2022-12-03T18:09:44.223Z,16.17
2022-12-03T18:12:13.424Z,14.93
2022-12-03T18:14:42.713Z,16.25
2022-12-03T18:17:12.061Z,14.85
2022-12-03T18:19:43.517Z,17.10
2022-12-03T18:22:12.977Z,12.68
2022-12-03T18:24:44.949Z,13.80
2022-12-03T18:27:12.855Z,14.27
2022-12-03T18:29:39.619Z,13.40
2022-12-03T18:32:27.043Z,13.93
2022-12-03T18:34:55.405Z,14.65
2022-12-03T18:37:26.115Z,15.10
2022-12-03T18:39:56.291Z,16.27
2022-12-03T18:42:23.820Z,16.73
2022-12-03T18:44:52.934Z,17.30
2022-12-03T18:47:26.598Z,18.30
2022-12-03T18:49:54.370Z,18.05
2022-12-03T18:52:25.517Z,17.25
2022-12-03T18:54:52.661Z,16.95
2022-12-03T18:57:21.498Z,16.73
2022-12-03T18:59:53.477Z,16.60
2022-12-03T19:02:54.202Z,16.60
2022-12-03T19:05:13.500Z,16.95
2022-12-03T19:07:40.245Z,16.70
2022-12-03T19:10:07.983Z,17.60
2022-12-03T19:12:34.821Z,17.35
2022-12-03T19:15:02.065Z,18.48
2022-12-03T19:17:31.228Z,16.83
2022-12-03T19:20:00.212Z,18.85
2022-12-03T19:22:31.635Z,16.90
2022-12-03T19:25:03.498Z,17.75
2022-12-03T19:27:31.126Z,16.50
2022-12-03T19:29:58.648Z,16.88
2022-12-03T19:32:27.555Z,17.17
2022-12-03T19:34:56.460Z,17.67
2022-12-03T19:37:23.229Z,17.13
2022-12-03T19:39:55.126Z,16.40
2022-12-03T19:44:48.644Z,17.40
2022-12-03T19:47:17.610Z,16.90
2022-12-03T19:49:46.792Z,19.95
2022-12-03T19:52:16.016Z,19.13
2022-12-03T19:54:42.768Z,18.35
2022-12-03T19:57:11.658Z,18.35
2022-12-03T19:59:40.558Z,19.20
2022-12-03T20:02:09.650Z,17.88
2022-12-03T20:04:40.895Z,18.77
2022-12-03T20:07:10.141Z,19.70
2022-12-03T20:09:36.913Z,19.27
2022-12-03T20:12:08.381Z,19.27
2022-12-03T20:14:35.113Z,22.65
2022-12-03T20:17:04.285Z,22.52
2022-12-03T20:19:31.104Z,19.42
2022-12-03T20:22:02.968Z,17.58
2022-12-03T20:27:03.657Z,17.05
2022-12-03T20:29:32.923Z,17.52
2022-12-03T20:32:00.515Z,17.20
2022-12-03T20:34:29.374Z,17.52
2022-12-03T20:36:56.041Z,16.95
2022-12-03T20:39:27.742Z,17.48
2022-12-03T20:41:54.535Z,18.73
2022-12-03T20:44:21.266Z,19.52
2022-12-03T20:46:50.112Z,19.48
2022-12-03T20:49:18.956Z,18.10
2022-12-03T20:51:45.955Z,15.30
2022-12-03T20:54:12.656Z,16.48
2022-12-03T20:56:39.513Z,17.08
2022-12-03T20:59:14.006Z,16.35
2022-12-03T21:01:44.358Z,16.13
2022-12-03T21:04:13.713Z,17.20
2022-12-03T21:06:42.259Z,15.48
2022-12-03T21:09:14.349Z,14.73
2022-12-03T21:14:11.050Z,15.48
2022-12-03T21:17:07.270Z,16.60
2022-12-03T21:19:33.092Z,15.05
2022-12-03T21:22:02.086Z,15.55
2022-12-03T21:24:31.307Z,14.80
2022-12-03T21:27:00.479Z,15.98
2022-12-03T21:29:29.447Z,14.93
2022-12-03T21:31:58.476Z,16.98
2022-12-03T21:34:25.595Z,16.05
2022-12-03T21:36:52.302Z,17.20
2022-12-03T21:39:21.126Z,15.85
2022-12-03T21:42:34.453Z,14.32
2022-12-03T21:44:37.451Z,15.23
2022-12-03T21:47:14.160Z,16.48
2022-12-03T21:49:41.574Z,15.60
2022-12-03T21:52:12.740Z,16.92
2022-12-03T21:54:46.607Z,14.87
2022-12-03T21:57:15.764Z,15.98
2022-12-03T21:59:44.878Z,15.27
2022-12-03T22:02:14.275Z,15.27
2022-12-03T22:04:41.526Z,13.73
2022-12-03T22:07:10.462Z,13.63
2022-12-03T22:09:37.412Z,15.38
2022-12-03T22:12:07.778Z,14.90
2022-12-03T22:14:39.833Z,15.57
2022-12-03T22:19:35.465Z,13.32
2022-12-03T22:22:02.156Z,14.05
2022-12-03T22:24:33.385Z,14.00
2022-12-03T22:27:00.089Z,13.13
2022-12-03T22:29:26.861Z,13.63
2022-12-03T22:31:55.663Z,14.02
2022-12-03T22:34:24.538Z,13.98
2022-12-03T22:36:53.520Z,12.50
2022-12-03T22:39:20.280Z,13.48
2022-12-03T22:41:49.239Z,15.40
2022-12-03T22:44:18.427Z,14.02
2022-12-03T22:46:47.370Z,12.82
2022-12-03T22:49:16.670Z,12.82
2022-12-03T22:51:48.779Z,12.68
2022-12-03T22:54:18.313Z,11.98
2022-12-03T22:56:51.653Z,13.10
2022-12-03T22:59:20.752Z,13.80
2022-12-03T23:01:49.999Z,13.57
2022-12-03T23:04:19.350Z,12.98
2022-12-03T23:06:51.052Z,13.05
2022-12-03T23:09:19.969Z,14.43
2022-12-03T23:11:48.858Z,13.95
2022-12-03T23:14:15.679Z,13.48
2022-12-03T23:16:42.470Z,14.75
2022-12-03T23:19:14.658Z,14.43
2022-12-03T23:21:41.388Z,12.30
2022-12-03T23:24:08.134Z,13.77
2022-12-03T23:26:39.371Z,14.52
2022-12-03T23:29:10.834Z,14.82
2022-12-03T23:31:39.838Z,14.85
2022-12-03T23:34:08.867Z,13.77
2022-12-03T23:36:37.974Z,12.60
2022-12-03T23:39:06.999Z,13.18
2022-12-03T23:41:33.750Z,15.23
2022-12-03T23:44:00.511Z,14.30
2022-12-03T23:46:29.724Z,13.77
2022-12-03T23:48:58.759Z,14.07
2022-12-03T23:51:26.386Z,14.15
2022-12-03T23:53:56.990Z,12.93
2022-12-03T23:56:29.063Z,13.10
